Time;durP1;ratioP1;P1;durP2;ratioP2;P2;SDS_P1;SDS_P2;PMS_P1;PMS_P2;Temp;Humidity;BMP_temperature;BMP_pressure;BME280_temperature;BME280_humidity;BME280_pressure;Samples;Min_cycle;Max_cycle;Signal;HPM_P1;HPM_P2
2022/10/19 00:01:41;;;;;;;8.10;1.67;;;11.80;99.90;;;;;;5092105;28;20040;-69
2022/10/19 00:04:07;;;;;;;8.23;1.38;;;12.00;99.90;;;;;;5092429;28;20050;-69
2022/10/19 00:06:34;;;;;;;7.88;1.98;;;11.90;99.90;;;;;;5092376;28;20051;-69
2022/10/19 00:09:06;;;;;;;7.18;1.75;;;11.90;99.90;;;;;;5091982;28;20039;-69
2022/10/19 00:11:33;;;;;;;9.90;1.48;;;11.70;99.90;;;;;;5092308;28;20052;-69
2022/10/19 00:14:00;;;;;;;5.68;1.40;;;11.70;99.90;;;;;;5092276;28;20048;-69
2022/10/19 00:16:29;;;;;;;5.35;1.27;;;11.90;99.90;;;;;;5092243;28;20039;-69
2022/10/19 00:18:59;;;;;;;11.55;1.60;;;12.00;99.90;;;;;;5092114;28;20477;-71
2022/10/19 00:21:25;;;;;;;6.85;1.40;;;12.10;99.90;;;;;;5092109;28;20051;-69
2022/10/19 00:23:51;;;;;;;;;;;11.80;99.90;;;;;;5092242;28;20047;-69
2022/10/19 00:26:17;;;;;;;8.20;1.55;;;11.70;99.90;;;;;;5092048;28;19924;-68
2022/10/19 00:28:43;;;;;;;;;;;11.90;99.90;;;;;;5092451;28;20132;-69
2022/10/19 00:31:12;;;;;;;14.15;2.40;;;11.90;99.90;;;;;;5092010;28;20335;-69
2022/10/19 00:33:38;;;;;;;9.68;1.52;;;11.90;99.90;;;;;;5092012;28;20052;-70
2022/10/19 00:36:05;;;;;;;10.38;2.45;;;11.80;99.90;;;;;;5091916;28;20074;-69
2022/10/19 00:38:30;;;;;;;8.52;1.38;;;12.00;99.90;;;;;;5091668;28;20044;-69
2022/10/19 00:40:56;;;;;;;10.05;1.80;;;11.90;99.90;;;;;;5091637;28;20067;-69
2022/10/19 00:43:24;;;;;;;9.05;1.63;;;12.00;99.90;;;;;;5091929;28;20062;-69
2022/10/19 00:45:51;;;;;;;7.57;1.30;;;12.20;99.90;;;;;;5091457;28;20137;-69
2022/10/19 00:48:31;;;;;;;6.75;1.40;;;11.90;99.90;;;;;;5091846;28;20090;-69
2022/10/19 00:50:59;;;;;;;12.02;2.13;;;12.10;99.90;;;;;;5091933;28;20048;-68
2022/10/19 00:53:27;;;;;;;12.90;1.40;;;11.80;99.90;;;;;;5091547;28;20119;-69
2022/10/19 00:55:54;;;;;;;8.52;1.40;;;11.90;99.90;;;;;;5091808;28;20399;-68
2022/10/19 00:58:20;;;;;;;8.25;1.60;;;11.90;99.90;;;;;;5091722;28;20055;-69
2022/10/19 01:00:46;;;;;;;10.55;1.63;;;12.70;99.90;;;;;;5091745;28;20052;-68
2022/10/19 01:03:13;;;;;;;16.73;1.77;;;11.90;99.90;;;;;;5091719;28;20048;-69
2022/10/19 01:05:39;;;;;;;11.95;1.70;;;11.80;99.90;;;;;;5091644;28;20058;-68
2022/10/19 01:08:06;;;;;;;;;;;12.00;99.90;;;;;;5091833;28;20052;-69
2022/10/19 01:10:43;;;;;;;7.35;1.65;;;11.80;99.90;;;;;;5091617;28;19920;-69
2022/10/19 01:13:31;;;;;;;6.07;1.60;;;11.70;99.90;;;;;;5091650;28;20047;-69
2022/10/19 01:16:00;;;;;;;8.27;2.10;;;11.80;99.90;;;;;;5090655;28;20044;-68
2022/10/19 01:18:30;;;;;;;10.20;1.42;;;12.00;99.90;;;;;;5091713;28;20044;-69
2022/10/19 01:21:02;;;;;;;9.18;1.73;;;11.80;99.90;;;;;;5091538;28;20050;-69
2022/10/19 01:23:45;;;;;;;9.07;2.40;;;12.10;99.90;;;;;;5091459;28;20514;-68
2022/10/19 01:26:38;;;;;;;13.52;1.50;;;11.90;99.90;;;;;;5091560;28;20048;-69
2022/10/19 01:29:34;;;;;;;10.32;1.60;;;11.80;99.90;;;;;;5091228;28;20056;-68
2022/10/19 01:32:07;;;;;;;8.18;1.90;;;12.10;99.90;;;;;;5082983;28;20087;-68
2022/10/19 01:34:42;;;;;;;11.88;2.03;;;11.80;99.90;;;;;;5091530;28;20392;-69
2022/10/19 01:37:13;;;;;;;10.50;2.00;;;11.50;99.90;;;;;;5091213;28;20051;-68
2022/10/19 01:40:11;;;;;;;10.32;1.98;;;12.00;99.90;;;;;;5091471;28;20040;-68
2022/10/19 01:42:45;;;;;;;11.77;2.22;;;12.30;99.90;;;;;;5083029;28;20071;-71
2022/10/19 01:45:31;;;;;;;13.38;2.22;;;11.70;99.90;;;;;;5091365;28;20044;-68
2022/10/19 01:48:27;;;;;;;8.60;1.50;;;11.80;99.90;;;;;;5091358;28;20075;-70
2022/10/19 01:51:00;;;;;;;12.38;1.90;;;11.80;99.90;;;;;;5089977;28;20444;-68
2022/10/19 01:53:29;;;;;;;13.40;2.00;;;11.90;99.90;;;;;;5093366;28;20071;-68
2022/10/19 01:55:56;;;;;;;11.18;2.05;;;12.10;99.90;;;;;;5094874;28;20068;-68
2022/10/19 01:58:27;;;;;;;16.08;1.92;;;11.80;99.90;;;;;;5093550;28;20083;-69
2022/10/19 02:00:56;;;;;;;14.73;2.13;;;11.30;99.90;;;;;;5094839;28;20059;-68
2022/10/19 02:03:24;;;;;;;9.93;1.67;;;11.60;99.90;;;;;;5094696;28;20051;-68
2022/10/19 02:05:52;;;;;;;7.40;1.60;;;11.70;99.90;;;;;;5094182;28;20048;-68
2022/10/19 02:08:25;;;;;;;14.55;2.15;;;11.70;99.90;;;;;;5094644;28;20113;-68
2022/10/19 02:10:51;;;;;;;12.13;2.03;;;11.70;99.90;;;;;;5094821;28;20051;-68
2022/10/19 02:13:19;;;;;;;10.23;1.77;;;11.90;99.90;;;;;;5094531;28;20087;-68
2022/10/19 02:15:50;;;;;;;10.55;1.90;;;11.60;99.90;;;;;;5094666;28;20101;-68
2022/10/19 02:18:21;;;;;;;8.88;1.60;;;11.70;99.90;;;;;;5094520;28;20135;-69
2022/10/19 02:20:47;;;;;;;15.52;2.40;;;11.30;99.90;;;;;;5094133;28;20051;-69
2022/10/19 02:23:16;;;;;;;4.45;1.30;;;12.10;99.90;;;;;;5094317;28;20052;-68
2022/10/19 02:25:41;;;;;;;11.10;2.17;;;11.50;99.90;;;;;;5094304;28;20054;-68
2022/10/19 02:28:07;;;;;;;10.80;2.30;;;11.30;99.90;;;;;;5094260;28;20048;-69
2022/10/19 02:30:33;;;;;;;14.70;1.80;;;11.60;99.90;;;;;;5092642;28;20048;-69
2022/10/19 02:32:59;;;;;;;12.82;2.05;;;11.90;99.90;;;;;;5094150;28;20043;-69
2022/10/19 02:35:25;;;;;;;9.95;2.08;;;11.80;99.90;;;;;;5093855;28;20373;-70
2022/10/19 02:37:51;;;;;;;20.35;2.03;;;11.60;99.90;;;;;;5094004;28;20091;-69
2022/10/19 02:40:16;;;;;;;9.63;1.75;;;11.90;99.90;;;;;;5094023;28;20043;-69
2022/10/19 02:42:57;;;;;;;12.05;2.65;;;11.20;99.90;;;;;;5093949;28;20388;-68
2022/10/19 02:45:36;;;;;;;12.27;2.28;;;13.10;99.90;;;;;;5093357;28;20126;-76
2022/10/19 02:48:11;;;;;;;13.65;2.03;;;11.40;99.90;;;;;;5072600;28;20049;-68
2022/10/19 02:50:42;;;;;;;6.55;1.50;;;11.10;99.90;;;;;;5073562;28;20047;-68
2022/10/19 02:53:07;;;;;;;15.93;2.60;;;11.30;99.90;;;;;;5073468;28;20117;-68
2022/10/19 02:55:33;;;;;;;12.35;2.38;;;11.60;99.90;;;;;;5073580;28;20045;-68
2022/10/19 02:57:59;;;;;;;6.90;1.80;;;11.10;99.90;;;;;;5073702;28;20052;-68
2022/10/19 03:00:24;;;;;;;10.82;1.48;;;11.00;99.90;;;;;;5073545;28;20036;-68
2022/10/19 03:02:50;;;;;;;11.95;2.53;;;11.70;99.90;;;;;;5073063;28;20131;-68
2022/10/19 03:05:16;;;;;;;13.23;2.10;;;10.80;99.90;;;;;;5073273;28;20127;-68
2022/10/19 03:07:42;;;;;;;12.50;2.53;;;11.50;99.90;;;;;;5073318;28;20113;-71
2022/10/19 03:10:08;;;;;;;10.10;1.63;;;11.50;99.90;;;;;;5073121;28;20408;-68
2022/10/19 03:12:33;;;;;;;;;;;11.10;99.90;;;;;;5073582;28;20048;-69
2022/10/19 03:14:59;;;;;;;10.55;1.77;;;10.60;99.90;;;;;;5073275;28;19928;-67
2022/10/19 03:17:25;;;;;;;16.95;2.40;;;11.20;99.90;;;;;;5073037;28;20563;-68
2022/10/19 03:19:50;;;;;;;10.68;3.03;;;11.10;99.90;;;;;;5072998;28;20036;-68
2022/10/19 03:22:16;;;;;;;11.77;2.00;;;10.70;99.90;;;;;;5072955;28;20091;-68
2022/10/19 03:24:42;;;;;;;9.45;1.70;;;10.80;99.90;;;;;;5072909;28;20148;-70
2022/10/19 03:27:07;;;;;;;7.82;1.67;;;10.70;99.90;;;;;;5072535;28;20052;-70
2022/10/19 03:29:33;;;;;;;10.02;1.88;;;11.00;99.90;;;;;;5072721;28;20052;-69
2022/10/19 03:31:58;;;;;;;10.85;1.80;;;10.40;99.90;;;;;;5072485;28;20044;-69
2022/10/19 03:34:24;;;;;;;13.23;2.20;;;10.60;99.90;;;;;;5072718;28;20047;-68
2022/10/19 03:36:50;;;;;;;12.65;2.08;;;11.50;99.90;;;;;;5072616;28;20048;-69
2022/10/19 03:39:16;;;;;;;14.73;2.58;;;10.60;99.90;;;;;;5071535;28;20406;-68
2022/10/19 03:41:42;;;;;;;13.90;1.80;;;10.30;99.90;;;;;;5072516;28;20045;-70
2022/10/19 03:44:08;;;;;;;;;;;10.60;99.90;;;;;;5072882;28;20558;-70
2022/10/19 03:46:35;;;;;;;12.95;1.63;;;10.30;99.90;;;;;;5072212;28;19978;-69
2022/10/19 03:49:02;;;;;;;11.65;1.50;;;10.10;99.90;;;;;;5072399;28;20049;-69
2022/10/19 03:51:29;;;;;;;10.82;2.10;;;10.50;99.90;;;;;;5071100;28;20061;-69
2022/10/19 03:54:05;;;;;;;15.50;1.90;;;10.30;99.90;;;;;;5072239;28;20093;-68
2022/10/19 03:56:33;;;;;;;8.15;1.60;;;10.00;99.90;;;;;;5087798;28;20464;-68
2022/10/19 03:59:01;;;;;;;11.55;2.08;;;9.80;99.90;;;;;;5092460;28;20052;-69
2022/10/19 04:01:30;;;;;;;9.75;1.67;;;10.10;99.90;;;;;;5092235;28;20392;-68
2022/10/19 04:04:13;;;;;;;14.60;2.38;;;10.70;99.90;;;;;;5092372;28;20055;-68
2022/10/19 04:06:42;;;;;;;15.27;1.75;;;8.20;99.90;;;;;;5092397;28;20048;-68
2022/10/19 04:09:10;;;;;;;15.15;1.98;;;9.80;99.90;;;;;;5092276;28;20054;-70
2022/10/19 04:11:37;;;;;;;10.90;1.73;;;9.80;99.90;;;;;;5092347;28;20047;-69
2022/10/19 04:14:02;;;;;;;13.15;2.22;;;9.60;99.90;;;;;;5092278;28;20044;-68
2022/10/19 04:16:30;;;;;;;15.63;2.63;;;10.10;99.90;;;;;;5091206;28;20048;-68
2022/10/19 04:18:57;;;;;;;10.60;2.38;;;10.30;99.90;;;;;;5092167;28;20048;-69
2022/10/19 04:21:25;;;;;;;18.33;2.08;;;10.30;99.90;;;;;;5092163;28;20079;-70
2022/10/19 04:23:52;;;;;;;9.57;1.70;;;9.70;99.90;;;;;;5092089;28;20116;-69
2022/10/19 04:26:19;;;;;;;18.73;2.65;;;9.60;99.90;;;;;;5090822;28;20109;-68
2022/10/19 04:28:45;;;;;;;14.38;1.83;;;9.70;99.90;;;;;;5091552;28;20048;-68
2022/10/19 04:31:11;;;;;;;17.30;2.88;;;9.70;99.90;;;;;;5091871;28;20079;-69
2022/10/19 04:33:37;;;;;;;11.50;1.88;;;9.70;99.90;;;;;;5092060;28;20177;-69
2022/10/19 04:36:08;;;;;;;20.63;2.67;;;9.50;99.90;;;;;;5092033;28;20093;-68
2022/10/19 04:38:34;;;;;;;17.52;2.47;;;9.80;99.90;;;;;;5091882;28;20055;-68
2022/10/19 04:41:02;;;;;;;15.25;1.92;;;10.00;99.90;;;;;;5091882;28;20055;-68
2022/10/19 04:43:28;;;;;;;15.30;2.55;;;9.80;99.90;;;;;;5092000;28;20063;-68
2022/10/19 04:45:54;;;;;;;10.77;1.92;;;10.00;99.90;;;;;;5091710;28;20063;-68
2022/10/19 04:48:19;;;;;;;16.45;2.58;;;11.10;99.90;;;;;;5091560;28;20487;-69
2022/10/19 04:50:45;;;;;;;13.65;2.22;;;10.20;99.90;;;;;;5091803;28;20036;-68
2022/10/19 04:53:10;;;;;;;16.48;2.55;;;10.30;99.90;;;;;;5091901;28;20040;-68
2022/10/19 04:55:41;;;;;;;9.50;1.70;;;9.90;99.90;;;;;;5091869;28;20101;-69
2022/10/19 04:58:06;;;;;;;13.35;1.92;;;10.50;99.90;;;;;;5091787;28;20044;-68
2022/10/19 05:00:32;;;;;;;10.32;1.50;;;10.10;99.90;;;;;;5091624;28;20046;-69
2022/10/19 05:02:58;;;;;;;13.90;2.80;;;9.90;99.90;;;;;;5091803;28;20048;-70
2022/10/19 05:05:25;;;;;;;18.77;2.67;;;10.30;99.90;;;;;;5092021;28;20135;-69
2022/10/19 05:07:51;;;;;;;9.77;1.67;;;10.40;99.90;;;;;;5091795;28;20123;-69
2022/10/19 05:10:17;;;;;;;14.63;2.00;;;10.80;99.90;;;;;;5091862;28;20043;-69
2022/10/19 05:12:42;;;;;;;15.18;2.20;;;10.80;99.90;;;;;;5092033;28;20048;-69
2022/10/19 05:15:09;;;;;;;9.10;1.85;;;10.50;99.90;;;;;;5091395;28;20388;-71
2022/10/19 05:17:34;;;;;;;15.43;2.17;;;10.60;99.90;;;;;;5091653;28;20055;-69
2022/10/19 05:20:00;;;;;;;11.23;2.42;;;10.60;99.90;;;;;;5091672;28;20040;-69
2022/10/19 05:22:26;;;;;;;17.00;3.08;;;10.40;99.90;;;;;;5091664;28;20055;-69
2022/10/19 05:24:51;;;;;;;10.57;1.90;;;10.60;99.90;;;;;;5091648;28;20052;-69
2022/10/19 05:27:17;;;;;;;14.55;2.00;;;10.70;99.90;;;;;;5091939;28;20107;-69
2022/10/19 05:29:43;;;;;;;14.23;1.90;;;10.50;99.90;;;;;;5093535;28;20112;-69
2022/10/19 05:32:09;;;;;;;9.75;1.90;;;11.10;99.90;;;;;;5095376;28;20049;-70
2022/10/19 05:34:34;;;;;;;10.98;1.67;;;10.70;99.90;;;;;;5094007;28;20407;-71
2022/10/19 05:37:00;;;;;;;10.88;2.22;;;10.80;99.90;;;;;;5094876;28;20127;-69
2022/10/19 05:39:26;;;;;;;15.80;2.28;;;10.80;99.90;;;;;;5095266;28;20040;-69
2022/10/19 05:41:51;;;;;;;15.18;3.20;;;10.70;99.90;;;;;;5095211;28;20051;-70
2022/10/19 05:44:19;;;;;;;14.43;1.70;;;10.70;99.90;;;;;;5094942;28;20547;-69
2022/10/19 05:46:46;;;;;;;12.15;1.60;;;10.60;99.90;;;;;;5095123;28;20044;-71
2022/10/19 05:49:12;;;;;;;7.50;1.50;;;11.20;99.90;;;;;;5094858;28;20097;-69
2022/10/19 05:51:38;;;;;;;12.18;1.80;;;10.90;99.90;;;;;;5094916;28;20113;-69
2022/10/19 05:54:04;;;;;;;12.63;2.22;;;11.00;99.90;;;;;;5084661;28;20060;-75
2022/10/19 05:56:31;;;;;;;10.50;1.70;;;10.90;99.90;;;;;;5092759;28;20040;-69
2022/10/19 05:58:58;;;;;;;12.38;1.77;;;10.90;99.90;;;;;;5093093;28;20048;-69
2022/10/19 06:01:26;;;;;;;10.93;2.13;;;10.90;99.90;;;;;;5094126;28;20048;-74
2022/10/19 06:03:53;;;;;;;13.55;1.73;;;11.10;99.90;;;;;;5093736;28;20512;-69
2022/10/19 06:06:20;;;;;;;17.33;2.53;;;11.00;99.90;;;;;;5094027;28;20503;-70
2022/10/19 06:08:46;;;;;;;11.65;2.13;;;11.00;99.90;;;;;;5092802;28;20127;-69
2022/10/19 06:11:16;;;;;;;15.40;2.10;;;11.20;99.90;;;;;;5091903;28;20911;-69
2022/10/19 06:13:43;;;;;;;9.15;1.92;;;10.70;99.90;;;;;;5093835;28;20083;-71
2022/10/19 06:16:10;;;;;;;16.52;2.25;;;11.20;99.90;;;;;;5093663;28;20545;-69
2022/10/19 06:18:36;;;;;;;14.60;2.20;;;11.40;99.90;;;;;;5085936;28;20097;-68
2022/10/19 06:21:10;;;;;;;15.60;2.88;;;11.30;99.90;;;;;;5093357;28;20040;-70
2022/10/19 06:23:36;;;;;;;8.65;1.85;;;11.10;99.90;;;;;;5093615;28;20055;-69
2022/10/19 06:26:04;;;;;;;13.25;2.08;;;11.00;99.90;;;;;;5091527;28;20044;-70
2022/10/19 06:28:30;;;;;;;8.60;1.88;;;11.00;99.90;;;;;;5093169;28;20348;-68
2022/10/19 06:30:59;;;;;;;10.32;1.85;;;11.10;99.90;;;;;;5091430;28;20094;-70
2022/10/19 06:33:29;;;;;;;11.00;1.88;;;11.00;99.90;;;;;;5092293;28;20094;-68
2022/10/19 06:35:54;;;;;;;10.43;3.25;;;10.70;99.90;;;;;;5091118;28;20056;-74
2022/10/19 06:38:20;;;;;;;15.68;2.33;;;11.00;99.90;;;;;;5091560;28;20044;-69
2022/10/19 06:40:48;;;;;;;16.30;2.63;;;11.60;99.90;;;;;;5092661;28;20104;-69
2022/10/19 06:43:14;;;;;;;13.90;1.65;;;11.10;99.90;;;;;;5093530;28;20080;-71
2022/10/19 06:45:39;;;;;;;;;;;11.00;99.90;;;;;;5093807;28;20510;-66
2022/10/19 06:48:06;;;;;;;10.90;1.90;;;11.00;99.90;;;;;;5093577;28;20007;-67
2022/10/19 06:50:32;;;;;;;12.38;2.33;;;11.00;99.90;;;;;;5093424;28;20047;-66
2022/10/19 06:52:58;;;;;;;;;;;11.30;99.90;;;;;;5093916;28;20055;-69
2022/10/19 06:55:24;;;;;;;13.98;1.90;;;11.40;99.90;;;;;;5092624;28;19924;-70
2022/10/19 06:57:50;;;;;;;12.45;2.00;;;11.30;99.90;;;;;;5093406;28;20116;-67
2022/10/19 07:00:16;;;;;;;12.20;2.00;;;11.20;99.90;;;;;;5093305;28;20480;-69
2022/10/19 07:02:42;;;;;;;10.07;2.10;;;11.00;99.90;;;;;;5093353;28;20048;-68
2022/10/19 07:05:08;;;;;;;8.25;1.77;;;11.40;99.90;;;;;;5093424;28;20044;-69
2022/10/19 07:07:34;;;;;;;14.43;2.50;;;11.20;99.90;;;;;;5093132;28;20044;-68
2022/10/19 07:10:00;;;;;;;12.18;2.15;;;11.50;99.90;;;;;;5091639;28;20044;-70
2022/10/19 07:12:26;;;;;;;13.02;2.00;;;11.50;99.90;;;;;;5091249;28;20381;-69
2022/10/19 07:14:53;;;;;;;15.02;1.80;;;11.40;99.90;;;;;;5091396;28;20040;-69
2022/10/19 07:17:18;;;;;;;10.70;1.55;;;11.10;99.90;;;;;;5092373;28;20086;-68
2022/10/19 07:19:44;;;;;;;13.52;2.22;;;11.40;99.90;;;;;;5087814;28;20604;-68
2022/10/19 07:22:10;;;;;;;13.32;2.20;;;11.90;99.90;;;;;;5092227;28;20804;-69
2022/10/19 07:24:35;;;;;;;12.68;1.95;;;11.50;99.90;;;;;;5092683;28;20047;-70
2022/10/19 07:27:01;;;;;;;8.55;2.10;;;11.70;99.90;;;;;;5092539;28;20048;-70
2022/10/19 07:29:27;;;;;;;9.02;1.50;;;11.80;99.90;;;;;;5091997;28;20526;-69
2022/10/19 07:31:53;;;;;;;12.30;2.00;;;11.80;99.90;;;;;;5092640;28;20060;-69
2022/10/19 07:34:18;;;;;;;12.23;2.03;;;11.80;99.90;;;;;;5092120;28;20047;-70
2022/10/19 07:36:46;;;;;;;12.80;2.00;;;11.70;99.90;;;;;;5091426;28;20079;-71
2022/10/19 07:39:13;;;;;;;11.38;3.15;;;11.60;99.90;;;;;;5091500;28;20580;-67
2022/10/19 07:41:39;;;;;;;13.20;2.17;;;11.80;99.90;;;;;;5091888;28;20395;-68
2022/10/19 07:44:05;;;;;;;9.15;1.38;;;11.80;99.90;;;;;;5091736;28;20044;-69
2022/10/19 07:46:35;;;;;;;8.35;1.73;;;11.90;99.90;;;;;;5091793;28;20050;-68
2022/10/19 07:49:04;;;;;;;9.50;1.95;;;12.00;99.90;;;;;;5086385;28;20055;-67
2022/10/19 07:51:29;;;;;;;13.65;2.17;;;11.90;99.90;;;;;;5087518;28;20434;-68
2022/10/19 07:53:57;;;;;;;12.40;2.38;;;12.10;99.90;;;;;;5091654;28;20044;-70
2022/10/19 07:56:24;;;;;;;13.05;2.00;;;12.20;99.90;;;;;;5090323;28;20101;-69
2022/10/19 07:58:52;;;;;;;9.48;2.00;;;12.20;99.90;;;;;;5091466;28;20411;-70
2022/10/19 08:01:21;;;;;;;9.05;1.90;;;12.00;99.90;;;;;;5082309;28;20066;-69
2022/10/19 08:03:47;;;;;;;10.90;1.77;;;11.90;99.90;;;;;;5091683;28;20050;-69
2022/10/19 08:06:16;;;;;;;7.88;1.63;;;12.00;99.90;;;;;;5091859;28;20112;-70
2022/10/19 08:08:42;;;;;;;9.77;1.70;;;12.00;99.90;;;;;;5091452;28;20438;-70
2022/10/19 08:11:09;;;;;;;;;;;12.40;99.90;;;;;;5092350;28;20047;-70
2022/10/19 08:13:35;;;;;;;11.15;2.20;;;12.20;99.90;;;;;;5091947;28;19920;-67
2022/10/19 08:16:01;;;;;;;15.55;2.70;;;12.00;99.90;;;;;;5091913;28;20131;-70
2022/10/19 08:18:26;;;;;;;12.63;2.42;;;12.10;99.90;;;;;;5090573;28;20039;-69
2022/10/19 08:20:52;;;;;;;11.80;2.08;;;12.60;99.90;;;;;;5091658;28;20400;-69
2022/10/19 08:23:18;;;;;;;11.75;1.92;;;12.40;99.90;;;;;;5091199;28;20044;-69
2022/10/19 08:25:43;;;;;;;13.65;2.13;;;12.10;99.90;;;;;;5091580;28;20059;-69
2022/10/19 08:28:09;;;;;;;9.30;1.77;;;12.50;99.90;;;;;;5090567;28;20054;-69
2022/10/19 08:30:35;;;;;;;7.95;2.00;;;12.50;99.90;;;;;;5091681;28;20234;-70
2022/10/19 08:33:02;;;;;;;;;;;12.50;99.90;;;;;;5091351;28;20442;-70
2022/10/19 08:35:29;;;;;;;16.20;2.43;;;12.60;99.90;;;;;;5091067;28;20506;-69
2022/10/19 08:37:55;;;;;;;13.40;1.90;;;12.50;99.90;;;;;;5091631;28;20324;-67
2022/10/19 08:40:27;;;;;;;11.15;2.25;;;12.60;99.90;;;;;;5088283;28;20076;-69
2022/10/19 08:43:28;;;;;;;10.38;1.88;;;12.50;99.90;;;;;;5091338;28;20119;-70
2022/10/19 08:46:06;;;;;;;17.35;2.42;;;12.60;99.90;;;;;;5091302;28;20044;-68
2022/10/19 08:48:36;;;;;;;16.92;3.00;;;12.60;99.90;;;;;;5089443;28;20052;-68
2022/10/19 08:51:05;;;;;;;14.73;2.88;;;12.70;99.90;;;;;;5088665;28;20047;-68
2022/10/19 08:53:40;;;;;;;11.30;1.73;;;12.40;99.90;;;;;;5090825;28;20083;-67
2022/10/19 08:56:18;;;;;;;15.27;2.40;;;12.70;99.90;;;;;;5091296;28;20052;-67
2022/10/19 08:59:12;;;;;;;7.82;1.70;;;12.70;99.90;;;;;;5090456;28;20547;-67
2022/10/19 09:01:59;;;;;;;12.75;2.25;;;12.70;99.90;;;;;;5090777;28;20079;-64
2022/10/19 09:04:27;;;;;;;10.52;1.83;;;12.70;99.90;;;;;;5094792;28;20131;-66
2022/10/19 09:07:02;;;;;;;9.50;1.67;;;13.00;99.90;;;;;;5094856;28;20044;-67
2022/10/19 09:09:30;;;;;;;9.52;2.28;;;13.20;99.90;;;;;;5094447;28;20040;-68
2022/10/19 09:12:03;;;;;;;11.90;3.30;;;13.00;99.90;;;;;;5094990;28;20498;-68
2022/10/19 09:14:46;;;;;;;14.05;2.50;;;13.10;99.90;;;;;;5093592;28;20040;-66
2022/10/19 09:17:14;;;;;;;13.13;2.38;;;13.30;99.90;;;;;;5094981;28;20135;-66
2022/10/19 09:19:40;;;;;;;14.70;2.30;;;13.00;99.90;;;;;;5094441;28;20123;-66
2022/10/19 09:22:28;;;;;;;13.27;2.78;;;13.10;99.90;;;;;;5094744;28;20135;-66
2022/10/19 09:25:01;;;;;;;10.52;2.30;;;13.00;99.90;;;;;;5094331;28;20043;-65
2022/10/19 09:27:35;;;;;;;11.40;1.83;;;13.10;99.90;;;;;;5093335;28;20131;-68
2022/10/19 09:30:12;;;;;;;15.45;3.10;;;12.90;99.90;;;;;;5094055;28;20381;-67
2022/10/19 09:32:38;;;;;;;12.25;2.00;;;13.30;99.90;;;;;;5094609;28;20091;-67
2022/10/19 09:35:06;;;;;;;15.20;2.50;;;13.30;99.90;;;;;;5094131;28;20048;-67
2022/10/19 09:37:38;;;;;;;17.15;2.83;;;13.20;99.90;;;;;;5092879;28;20503;-69
2022/10/19 09:40:06;;;;;;;12.80;2.55;;;13.50;99.90;;;;;;5088503;28;20048;-67
2022/10/19 09:42:32;;;;;;;14.25;2.05;;;13.40;99.90;;;;;;5094219;28;20040;-67
2022/10/19 09:45:01;;;;;;;8.95;2.50;;;13.20;99.90;;;;;;5094167;28;20146;-66
2022/10/19 09:47:38;;;;;;;14.73;2.80;;;13.30;99.90;;;;;;5093223;28;20444;-67
2022/10/19 09:50:18;;;;;;;14.75;2.83;;;13.40;99.90;;;;;;5093780;28;20047;-68
2022/10/19 09:52:46;;;;;;;10.80;2.45;;;13.40;99.90;;;;;;5093752;28;20172;-66
2022/10/19 09:55:40;;;;;;;16.88;2.65;;;13.40;99.90;;;;;;5093981;28;20093;-68
2022/10/19 09:58:11;;;;;;;8.68;2.40;;;13.50;99.90;;;;;;5094025;28;20090;-70
2022/10/19 10:00:43;;;;;;;15.13;3.22;;;13.30;99.90;;;;;;5093704;28;20051;-68
2022/10/19 10:03:23;;;;;;;10.60;2.33;;;13.30;99.90;;;;;;5093745;28;20044;-68
2022/10/19 10:05:49;;;;;;;19.85;2.70;;;13.30;99.90;;;;;;5092469;28;20553;-67
2022/10/19 10:08:41;;;;;;;;;;;13.60;99.90;;;;;;5093962;28;20051;-69
2022/10/19 10:11:09;;;;;;;14.23;2.45;;;13.40;99.90;;;;;;5090507;28;19967;-66
2022/10/19 10:13:41;;;;;;;7.90;1.92;;;13.40;99.90;;;;;;5092716;28;20047;-69
2022/10/19 10:16:09;;;;;;;9.43;2.15;;;13.30;99.90;;;;;;5072852;28;20048;-66
2022/10/19 10:18:43;;;;;;;12.00;3.08;;;13.30;99.90;;;;;;5072157;28;20135;-72
2022/10/19 10:21:21;;;;;;;11.38;2.65;;;13.60;99.90;;;;;;5073142;28;20488;-69
2022/10/19 10:24:01;;;;;;;11.75;2.38;;;13.60;99.90;;;;;;5074114;28;20125;-68
2022/10/19 10:26:27;;;;;;;11.60;2.55;;;13.60;99.90;;;;;;5093426;28;20063;-68
2022/10/19 10:28:52;;;;;;;15.55;2.50;;;13.70;99.90;;;;;;5092102;28;20075;-71
2022/10/19 10:31:24;;;;;;;15.20;3.72;;;13.60;99.90;;;;;;5091945;28;20044;-69
2022/10/19 10:33:56;;;;;;;13.68;3.22;;;13.30;99.90;;;;;;5092414;28;20036;-67
2022/10/19 10:36:25;;;;;;;15.60;2.50;;;13.40;99.90;;;;;;5092384;28;20138;-70
2022/10/19 10:38:54;;;;;;;15.07;2.55;;;13.60;99.90;;;;;;5092972;28;20044;-68
2022/10/19 10:41:22;;;;;;;12.65;2.15;;;13.70;99.90;;;;;;5091310;28;20048;-68
2022/10/19 10:43:58;;;;;;;10.43;2.10;;;13.70;99.90;;;;;;5090858;28;20067;-72
2022/10/19 10:46:31;;;;;;;14.15;2.58;;;13.90;99.90;;;;;;5072507;28;20036;-68
2022/10/19 10:48:58;;;;;;;7.78;1.58;;;13.70;99.90;;;;;;5072850;28;20040;-68
2022/10/19 10:51:42;;;;;;;9.23;2.13;;;14.00;99.90;;;;;;5072650;28;20481;-69
2022/10/19 10:54:31;;;;;;;15.85;2.47;;;13.90;99.90;;;;;;5076457;28;20058;-69
2022/10/19 10:57:15;;;;;;;14.10;2.35;;;13.90;99.90;;;;;;5092153;28;20048;-68
2022/10/19 10:59:46;;;;;;;16.45;3.00;;;14.20;99.90;;;;;;5092849;28;20369;-68
2022/10/19 11:02:35;;;;;;;15.95;2.70;;;14.10;99.90;;;;;;5093555;28;20047;-67
2022/10/19 11:05:22;;;;;;;11.18;1.90;;;14.00;99.90;;;;;;5093454;28;20047;-68
2022/10/19 11:08:04;;;;;;;13.73;2.05;;;13.70;99.90;;;;;;5093545;28;20101;-68
2022/10/19 11:10:40;;;;;;;15.18;1.75;;;13.80;99.90;;;;;;5093339;28;20051;-67
2022/10/19 11:13:23;;;;;;;18.98;3.22;;;14.10;99.90;;;;;;5093602;28;20112;-68
2022/10/19 11:16:01;;;;;;;15.40;2.97;;;14.20;99.90;;;;;;5093109;28;20147;-67
2022/10/19 11:18:39;;;;;;;8.82;1.63;;;14.40;99.90;;;;;;5092010;28;20086;-67
2022/10/19 11:21:10;;;;;;;10.85;1.90;;;14.30;99.90;;;;;;5093283;28;20070;-68
2022/10/19 11:23:47;;;;;;;9.63;1.92;;;14.30;99.90;;;;;;5093086;28;20459;-68
2022/10/19 11:26:50;;;;;;;13.90;2.78;;;14.30;99.90;;;;;;5093111;28;20051;-68
2022/10/19 11:29:42;;;;;;;12.27;2.63;;;14.30;99.90;;;;;;5091620;28;20048;-67
2022/10/19 11:32:22;;;;;;;11.27;2.05;;;14.70;99.90;;;;;;5090312;28;20095;-70
2022/10/19 11:35:06;;;;;;;13.80;2.70;;;14.60;99.90;;;;;;5093065;28;20055;-69
2022/10/19 11:37:59;;;;;;;6.65;2.00;;;14.60;99.90;;;;;;5092973;28;20050;-68
2022/10/19 11:40:24;;;;;;;9.85;2.67;;;14.50;99.90;;;;;;5092491;28;20541;-68
2022/10/19 11:43:05;;;;;;;13.05;2.35;;;14.60;99.90;;;;;;5092699;28;20072;-68
2022/10/19 11:45:49;;;;;;;6.38;1.67;;;14.30;99.90;;;;;;5092107;28;20326;-68
2022/10/19 11:48:39;;;;;;;10.48;2.42;;;14.70;99.90;;;;;;5092541;28;20047;-68
2022/10/19 11:51:10;;;;;;;10.63;2.20;;;14.30;99.90;;;;;;5092437;28;20083;-68
2022/10/19 11:53:42;;;;;;;9.45;1.70;;;14.50;99.90;;;;;;5092564;28;20050;-74
2022/10/19 11:56:20;;;;;;;8.13;1.70;;;14.90;99.90;;;;;;5092599;28;20084;-68
2022/10/19 11:58:53;;;;;;;7.07;2.00;;;14.70;99.90;;;;;;5092555;28;20040;-67
2022/10/19 12:01:35;;;;;;;11.52;1.70;;;14.50;99.90;;;;;;5092620;28;20056;-68
2022/10/19 12:04:11;;;;;;;9.93;2.92;;;14.40;99.90;;;;;;5092397;28;20046;-67
2022/10/19 12:06:57;;;;;;;9.82;2.10;;;14.40;99.90;;;;;;5092475;28;20044;-68
2022/10/19 12:09:30;;;;;;;8.60;2.40;;;14.40;99.90;;;;;;5092296;28;20048;-69
2022/10/19 12:12:14;;;;;;;13.50;2.05;;;14.60;99.90;;;;;;5092210;28;20081;-69
2022/10/19 12:14:45;;;;;;;8.60;2.17;;;14.10;99.90;;;;;;5092208;28;20051;-68
2022/10/19 12:17:28;;;;;;;18.50;2.90;;;14.50;99.90;;;;;;5092182;28;20395;-68
2022/10/19 12:20:04;;;;;;;11.70;2.30;;;14.40;99.90;;;;;;5092663;28;20105;-71
2022/10/19 12:22:32;;;;;;;11.52;2.80;;;14.80;99.90;;;;;;5091827;28;20093;-68
2022/10/19 12:25:00;;;;;;;7.20;1.42;;;14.50;99.90;;;;;;5092257;28;20051;-67
2022/10/19 12:27:37;;;;;;;7.93;1.52;;;14.50;99.90;;;;;;5092054;28;20048;-68
2022/10/19 12:30:13;;;;;;;10.07;1.63;;;14.40;99.90;;;;;;5091882;28;20051;-69
2022/10/19 12:33:02;;;;;;;9.48;2.10;;;14.20;99.90;;;;;;5092064;28;20088;-68
2022/10/19 12:35:43;;;;;;;8.77;1.75;;;13.90;99.90;;;;;;5091050;28;20048;-68
2022/10/19 12:38:36;;;;;;;16.55;2.60;;;14.70;99.90;;;;;;5092244;28;20197;-69
2022/10/19 12:41:23;;;;;;;9.18;1.67;;;14.10;99.90;;;;;;5091998;28;20048;-67
2022/10/19 12:44:14;;;;;;;6.85;2.00;;;13.90;99.90;;;;;;5092160;28;20097;-70
2022/10/19 12:46:46;;;;;;;13.05;2.08;;;13.80;99.90;;;;;;5092029;28;20044;-68
2022/10/19 12:49:35;;;;;;;16.70;2.72;;;13.60;99.90;;;;;;5091934;28;20128;-67
2022/10/19 12:52:01;;;;;;;20.63;5.80;;;14.10;99.90;;;;;;5091903;28;20458;-68
2022/10/19 12:54:37;;;;;;;8.90;2.55;;;14.00;99.90;;;;;;5091783;28;20050;-68
2022/10/19 12:57:17;;;;;;;6.18;1.73;;;13.80;99.90;;;;;;5091603;28;20087;-69
2022/10/19 12:59:43;;;;;;;9.05;2.05;;;14.00;99.90;;;;;;5091985;28;20040;-67
2022/10/19 13:02:28;;;;;;;7.60;1.98;;;13.90;99.90;;;;;;5091606;28;20391;-68